createdAt,value
2022-07-31T00:00:24.279Z,15.37
2022-07-31T00:02:51.409Z,15.33
2022-07-31T00:05:18.787Z,15.28
2022-07-31T00:07:46.291Z,15.39
2022-07-31T00:10:13.600Z,15.37
2022-07-31T00:12:40.908Z,15.28
2022-07-31T00:15:12.827Z,15.24
2022-07-31T00:17:41.011Z,15.24
2022-07-31T00:20:15.854Z,15.28
2022-07-31T00:22:48.405Z,15.18
2022-07-31T00:25:17.368Z,15.23
2022-07-31T00:27:45.345Z,15.28
2022-07-31T00:30:13.546Z,15.14
2022-07-31T00:32:41.938Z,15.18
2022-07-31T00:35:12.322Z,15.13
2022-07-31T00:37:41.470Z,15.16
2022-07-31T00:40:11.787Z,15.16
2022-07-31T00:42:39.116Z,15.13
2022-07-31T00:45:07.079Z,15.10
2022-07-31T00:47:35.569Z,15.11
2022-07-31T00:50:04.859Z,15.08
2022-07-31T00:52:32.079Z,15.13
2022-07-31T00:54:59.323Z,15.13
2022-07-31T00:57:26.847Z,15.12
2022-07-31T00:59:54.252Z,15.06
2022-07-31T01:02:21.537Z,15.11
2022-07-31T01:04:48.787Z,15.09
2022-07-31T01:07:15.979Z,15.09
2022-07-31T01:09:45.040Z,15.10
2022-07-31T01:12:16.732Z,15.01
2022-07-31T01:14:49.821Z,15.06
2022-07-31T01:17:19.404Z,15.02
2022-07-31T01:19:49.443Z,15.04
2022-07-31T01:22:35.820Z,15.01
2022-07-31T01:25:17.432Z,15.02
2022-07-31T01:28:09.649Z,15.00
2022-07-31T01:31:27.224Z,15.02
2022-07-31T01:34:32.783Z,15.04
2022-07-31T01:37:12.638Z,15.00
2022-07-31T01:39:46.696Z,14.99
2022-07-31T01:42:18.483Z,14.99
2022-07-31T01:44:51.252Z,15.01
2022-07-31T01:47:21.598Z,15.02
2022-07-31T01:49:53.664Z,14.97
2022-07-31T01:52:25.875Z,14.93
2022-07-31T01:54:54.420Z,14.93
2022-07-31T01:57:24.703Z,14.88
2022-07-31T02:00:00.915Z,14.90
2022-07-31T02:02:44.142Z,14.91
2022-07-31T02:05:12.879Z,14.89
2022-07-31T02:07:42.427Z,14.88
2022-07-31T02:10:12.649Z,14.86
2022-07-31T02:12:41.595Z,14.79
2022-07-31T02:15:14.222Z,14.81
2022-07-31T02:17:46.179Z,14.79
2022-07-31T02:20:23.898Z,14.77
2022-07-31T02:22:55.320Z,14.77
2022-07-31T02:25:23.154Z,14.76
2022-07-31T02:27:55.520Z,14.76
2022-07-31T02:30:39.288Z,14.84
2022-07-31T02:33:19.278Z,14.77
2022-07-31T02:35:50.418Z,14.76
2022-07-31T02:38:22.628Z,14.78
2022-07-31T02:40:56.451Z,14.73
2022-07-31T02:43:26.817Z,14.68
2022-07-31T02:45:57.408Z,14.72
2022-07-31T02:48:26.094Z,14.75
2022-07-31T02:50:56.418Z,14.73
2022-07-31T02:53:23.917Z,14.67
2022-07-31T02:55:54.036Z,14.62
2022-07-31T02:58:21.605Z,14.63
2022-07-31T03:00:58.541Z,14.66
2022-07-31T03:03:25.941Z,14.61
2022-07-31T03:05:53.369Z,14.66
2022-07-31T03:08:20.671Z,14.62
2022-07-31T03:10:52.849Z,14.60
2022-07-31T03:13:24.423Z,14.61
2022-07-31T03:15:51.882Z,14.64
2022-07-31T03:18:21.671Z,14.62
2022-07-31T03:20:54.010Z,14.65
2022-07-31T03:23:22.857Z,14.64
2022-07-31T03:25:58.674Z,14.64
2022-07-31T03:28:26.052Z,14.65
2022-07-31T03:30:56.493Z,14.61
2022-07-31T03:33:26.768Z,14.66
2022-07-31T03:35:54.212Z,14.67
2022-07-31T03:38:40.696Z,14.65
2022-07-31T03:41:11.082Z,14.57
2022-07-31T03:43:43.646Z,14.57
2022-07-31T03:46:18.537Z,14.59
2022-07-31T03:48:47.958Z,14.60
2022-07-31T03:51:15.735Z,14.60
2022-07-31T03:53:44.051Z,14.60
2022-07-31T03:56:27.629Z,14.59
2022-07-31T03:58:55.022Z,14.56
2022-07-31T04:01:24.142Z,14.69
2022-07-31T04:03:59.782Z,14.63
2022-07-31T04:06:45.569Z,14.62
2022-07-31T04:09:18.874Z,14.70
2022-07-31T04:11:48.354Z,14.77
2022-07-31T04:14:16.494Z,14.72
2022-07-31T04:16:43.718Z,14.83
2022-07-31T04:19:11.047Z,14.79
2022-07-31T04:21:38.486Z,14.81
2022-07-31T04:24:06.623Z,14.80
2022-07-31T04:26:58.123Z,14.88
2022-07-31T04:29:31.816Z,14.82
2022-07-31T04:31:59.137Z,14.89
2022-07-31T04:34:33.689Z,14.97
2022-07-31T04:37:01.191Z,14.97
2022-07-31T04:39:28.528Z,15.04
2022-07-31T04:41:56.754Z,15.01
2022-07-31T04:44:25.506Z,15.06
2022-07-31T04:47:02.485Z,15.10
2022-07-31T04:49:33.322Z,15.17
2022-07-31T04:52:02.805Z,15.28
2022-07-31T04:54:30.399Z,15.23
2022-07-31T04:56:59.470Z,15.31
2022-07-31T04:59:58.534Z,15.40
2022-07-31T05:02:14.922Z,15.48
2022-07-31T05:04:42.242Z,15.51
2022-07-31T05:15:48.064Z,15.80
2022-07-31T05:18:15.615Z,15.86
2022-07-31T05:21:05.542Z,16.00
2022-07-31T05:23:41.592Z,16.05
2022-07-31T05:26:17.876Z,16.17
2022-07-31T05:28:46.646Z,16.37
2022-07-31T05:31:14.365Z,16.47
2022-07-31T05:33:42.156Z,16.55
2022-07-31T05:36:09.864Z,16.72
2022-07-31T05:38:37.187Z,16.76
2022-07-31T05:41:23.224Z,16.85
2022-07-31T05:44:02.398Z,17.00
2022-07-31T05:46:42.437Z,17.18
2022-07-31T05:49:10.280Z,17.32
2022-07-31T05:51:37.676Z,17.36
2022-07-31T05:54:04.966Z,17.46
2022-07-31T05:57:07.613Z,17.58
2022-07-31T05:59:44.225Z,17.56
2022-07-31T06:02:11.720Z,17.73
2022-07-31T06:05:05.749Z,18.04
2022-07-31T06:07:34.177Z,18.17
2022-07-31T06:10:03.686Z,18.40
2022-07-31T06:12:31.393Z,18.53
2022-07-31T06:15:01.268Z,18.58
2022-07-31T06:17:44.828Z,18.78
2022-07-31T06:20:24.087Z,18.94
2022-07-31T06:22:51.493Z,19.19
2022-07-31T06:25:19.049Z,19.18
2022-07-31T06:27:55.013Z,19.39
2022-07-31T06:30:27.946Z,19.44
2022-07-31T06:32:55.641Z,19.61
2022-07-31T06:35:23.065Z,19.65
2022-07-31T06:38:08.912Z,19.79
2022-07-31T06:40:56.433Z,19.58
2022-07-31T06:43:37.759Z,19.47
2022-07-31T06:46:23.708Z,19.60
2022-07-31T06:49:09.568Z,19.87
2022-07-31T06:51:38.687Z,20.18
2022-07-31T06:54:08.652Z,20.12
2022-07-31T06:56:37.604Z,20.17
2022-07-31T06:59:06.245Z,20.32
2022-07-31T07:01:33.929Z,20.23
2022-07-31T07:04:01.685Z,20.17
2022-07-31T07:06:28.975Z,20.46
2022-07-31T07:08:56.425Z,20.55
2022-07-31T07:11:23.859Z,20.82
2022-07-31T07:13:51.092Z,20.82
2022-07-31T07:16:20.201Z,20.55
2022-07-31T07:18:47.959Z,20.59
2022-07-31T07:21:15.361Z,20.59
2022-07-31T07:23:43.048Z,20.81
2022-07-31T07:26:19.936Z,20.87
2022-07-31T07:28:47.839Z,20.88
2022-07-31T07:31:15.155Z,20.85
2022-07-31T07:33:43.053Z,20.89
2022-07-31T07:36:24.716Z,20.95
2022-07-31T07:39:02.690Z,20.88
2022-07-31T07:41:32.167Z,21.05
2022-07-31T07:44:01.116Z,21.11
2022-07-31T07:46:30.520Z,21.22
2022-07-31T07:49:01.838Z,21.31
2022-07-31T07:51:38.452Z,21.28
2022-07-31T07:54:51.258Z,21.50
2022-07-31T07:57:39.169Z,21.59
2022-07-31T08:00:16.260Z,21.51
2022-07-31T08:03:02.665Z,21.71
2022-07-31T08:05:39.316Z,21.92
2022-07-31T08:08:06.811Z,21.87
2022-07-31T08:11:04.913Z,22.10
2022-07-31T08:13:52.314Z,22.26
2022-07-31T08:16:41.954Z,22.23
2022-07-31T08:19:09.335Z,21.93
2022-07-31T08:21:38.793Z,22.13
2022-07-31T08:24:06.857Z,22.31
2022-07-31T08:26:58.675Z,22.43
2022-07-31T08:33:10.249Z,22.99
2022-07-31T08:35:40.277Z,23.07
2022-07-31T08:38:14.352Z,22.83
2022-07-31T08:40:53.192Z,22.79
2022-07-31T08:46:09.634Z,23.18
2022-07-31T08:48:43.848Z,23.43
2022-07-31T08:51:12.518Z,23.33
2022-07-31T08:53:59.344Z,23.44
2022-07-31T08:56:27.439Z,23.50
2022-07-31T08:58:58.495Z,23.41
2022-07-31T09:01:26.904Z,23.48
2022-07-31T09:03:54.867Z,23.54
2022-07-31T09:06:23.203Z,23.77
2022-07-31T09:08:50.585Z,23.47
2022-07-31T09:11:18.826Z,23.71
2022-07-31T09:14:07.560Z,24.16
2022-07-31T09:16:47.725Z,24.59
2022-07-31T09:19:53.118Z,24.51
2022-07-31T09:22:29.487Z,24.15
2022-07-31T09:25:16.317Z,24.44
2022-07-31T09:27:43.948Z,24.23
2022-07-31T09:30:12.029Z,24.03
2022-07-31T09:33:19.186Z,23.93
2022-07-31T09:36:06.091Z,24.02
2022-07-31T09:38:41.212Z,23.86
2022-07-31T09:42:01.007Z,23.70
2022-07-31T09:44:17.573Z,24.09
2022-07-31T09:46:50.298Z,24.53
2022-07-31T09:49:17.970Z,25.12
2022-07-31T09:51:49.055Z,24.86
2022-07-31T09:54:22.626Z,24.98
2022-07-31T09:57:09.848Z,25.21
2022-07-31T09:59:38.633Z,24.88
2022-07-31T10:02:08.243Z,24.33
2022-07-31T10:04:38.823Z,24.43
2022-07-31T10:07:08.591Z,25.12
2022-07-31T10:09:39.771Z,25.62
2022-07-31T10:12:17.070Z,25.57
2022-07-31T10:14:46.225Z,25.84
2022-07-31T10:17:21.469Z,25.46
2022-07-31T10:20:05.695Z,25.51
2022-07-31T10:22:59.493Z,25.47
2022-07-31T10:25:34.670Z,25.43
2022-07-31T10:28:06.546Z,25.78
2022-07-31T10:30:36.768Z,25.57
2022-07-31T10:33:13.742Z,24.75
2022-07-31T10:36:19.854Z,23.89
2022-07-31T10:39:31.063Z,23.60
2022-07-31T10:42:40.399Z,23.92
2022-07-31T10:45:13.842Z,24.28
2022-07-31T10:48:11.633Z,25.09
2022-07-31T10:51:04.448Z,25.46
2022-07-31T10:53:56.213Z,25.51
2022-07-31T10:56:46.411Z,26.04
2022-07-31T10:59:36.779Z,26.25
2022-07-31T11:02:34.196Z,25.60
2022-07-31T11:05:30.285Z,25.62
2022-07-31T11:08:18.016Z,26.16
2022-07-31T11:11:03.657Z,25.71
2022-07-31T11:13:57.962Z,24.94
2022-07-31T11:16:55.717Z,24.12
2022-07-31T11:19:46.251Z,23.86
2022-07-31T11:22:31.840Z,24.67
2022-07-31T11:25:00.927Z,25.54
2022-07-31T11:27:32.884Z,25.99
2022-07-31T11:30:13.190Z,26.52
2022-07-31T11:32:51.949Z,26.94
2022-07-31T11:35:27.427Z,26.45
2022-07-31T11:37:57.132Z,25.38
2022-07-31T11:40:27.729Z,24.55
2022-07-31T11:43:24.906Z,24.04
2022-07-31T11:45:53.662Z,23.84
2022-07-31T11:48:27.219Z,23.88
2022-07-31T11:50:55.331Z,23.86
2022-07-31T11:53:22.707Z,23.93
2022-07-31T11:55:57.339Z,23.80
2022-07-31T11:58:26.671Z,23.68
2022-07-31T12:01:04.668Z,23.72
2022-07-31T12:03:37.505Z,23.59
2022-07-31T12:06:06.559Z,23.65
2022-07-31T12:08:37.398Z,24.38
2022-07-31T12:11:07.822Z,25.13
2022-07-31T12:13:35.682Z,25.41
2022-07-31T12:16:06.698Z,25.85
2022-07-31T12:18:55.020Z,26.26
2022-07-31T12:21:30.947Z,26.88
2022-07-31T12:23:58.443Z,27.21
2022-07-31T12:26:33.475Z,27.35
2022-07-31T12:29:10.715Z,27.42
2022-07-31T12:32:05.157Z,26.27
2022-07-31T12:34:35.206Z,25.97
2022-07-31T12:37:08.127Z,26.22
2022-07-31T12:40:00.087Z,26.83
2022-07-31T12:42:34.180Z,27.25
2022-07-31T12:45:18.175Z,27.41
2022-07-31T12:47:51.360Z,27.44
2022-07-31T12:50:25.139Z,27.54
2022-07-31T12:52:53.879Z,27.96
2022-07-31T12:55:21.218Z,27.74
2022-07-31T12:57:51.864Z,27.87
2022-07-31T13:00:25.393Z,27.68
2022-07-31T13:02:54.676Z,27.85
2022-07-31T13:05:23.330Z,27.66
2022-07-31T13:07:50.858Z,27.99
2022-07-31T13:10:21.222Z,28.04
2022-07-31T13:12:52.006Z,28.19
2022-07-31T13:15:22.586Z,28.13
2022-07-31T13:17:50.873Z,27.95
2022-07-31T13:20:19.090Z,28.13
2022-07-31T13:22:46.385Z,27.92
2022-07-31T13:25:13.787Z,27.99
2022-07-31T13:27:41.871Z,27.42
2022-07-31T13:30:10.213Z,27.43
2022-07-31T13:32:37.580Z,27.40
2022-07-31T13:35:19.615Z,27.70
2022-07-31T13:37:54.034Z,27.84
2022-07-31T13:40:41.618Z,27.29
2022-07-31T13:43:08.949Z,27.11
2022-07-31T13:45:36.655Z,27.40
2022-07-31T13:48:08.651Z,27.51
2022-07-31T13:50:40.285Z,27.16
2022-07-31T13:53:08.089Z,27.18
2022-07-31T13:55:35.820Z,27.02
2022-07-31T13:58:03.918Z,27.07
2022-07-31T14:00:31.383Z,27.27
2022-07-31T14:02:59.041Z,27.48
2022-07-31T14:05:27.556Z,27.48
2022-07-31T14:07:56.186Z,27.46
2022-07-31T14:10:43.831Z,27.45
2022-07-31T14:13:16.744Z,27.63
2022-07-31T14:15:44.479Z,27.65
2022-07-31T14:18:12.381Z,27.49
2022-07-31T14:20:39.958Z,27.37
2022-07-31T14:23:10.171Z,27.52
2022-07-31T14:25:38.893Z,27.74
2022-07-31T14:28:09.352Z,27.71
2022-07-31T14:30:37.256Z,27.88
2022-07-31T14:33:05.117Z,27.79
2022-07-31T14:35:33.598Z,27.86
2022-07-31T14:38:04.213Z,27.72
2022-07-31T14:40:31.855Z,27.01
2022-07-31T14:42:59.823Z,26.90
2022-07-31T14:45:27.439Z,27.04
2022-07-31T14:47:55.510Z,27.40
2022-07-31T14:50:23.491Z,27.50
2022-07-31T14:52:50.806Z,27.56
2022-07-31T14:55:19.404Z,27.48
2022-07-31T14:57:46.801Z,27.29
2022-07-31T15:00:15.167Z,27.46
2022-07-31T15:02:43.777Z,27.80
2022-07-31T15:06:37.549Z,27.94
2022-07-31T15:07:59.814Z,27.84
2022-07-31T15:10:27.128Z,27.55
2022-07-31T15:12:54.298Z,27.47
2022-07-31T15:15:21.547Z,27.37
2022-07-31T15:17:48.859Z,27.44
2022-07-31T15:20:16.115Z,27.73
2022-07-31T15:22:43.444Z,27.76
2022-07-31T15:25:11.080Z,27.96
2022-07-31T15:27:38.309Z,27.39
2022-07-31T15:30:08.018Z,27.11
2022-07-31T15:32:37.510Z,27.35
2022-07-31T15:35:07.172Z,27.44
2022-07-31T15:37:39.573Z,27.16
2022-07-31T15:40:09.774Z,27.13
2022-07-31T15:42:40.577Z,27.21
2022-07-31T15:45:10.047Z,27.06
2022-07-31T15:47:37.857Z,26.12
2022-07-31T15:50:06.956Z,25.90
2022-07-31T15:52:34.239Z,26.36
2022-07-31T15:55:02.243Z,26.71
2022-07-31T15:57:29.605Z,26.96
2022-07-31T15:59:57.313Z,27.09
2022-07-31T16:02:24.729Z,27.19
2022-07-31T16:04:55.598Z,27.22
2022-07-31T16:08:32.496Z,27.14
2022-07-31T16:10:17.712Z,27.22
2022-07-31T16:12:46.109Z,26.95
2022-07-31T16:15:14.927Z,26.95
2022-07-31T16:17:43.705Z,26.98
2022-07-31T16:20:13.519Z,27.09
2022-07-31T16:22:58.733Z,27.17
2022-07-31T16:25:26.820Z,27.25
2022-07-31T16:27:55.329Z,27.39
2022-07-31T16:30:23.314Z,26.89
2022-07-31T16:32:50.781Z,26.67
2022-07-31T16:35:18.351Z,26.65
2022-07-31T16:37:51.459Z,26.73
2022-07-31T16:40:28.509Z,26.69
2022-07-31T16:43:50.892Z,26.67
2022-07-31T16:45:51.708Z,26.68
2022-07-31T16:48:19.192Z,26.63
2022-07-31T16:50:48.362Z,26.55
2022-07-31T16:54:13.590Z,26.65
2022-07-31T16:56:11.479Z,26.51
2022-07-31T16:58:38.710Z,26.49
2022-07-31T17:01:06.447Z,26.39
2022-07-31T17:03:59.899Z,26.10
2022-07-31T17:06:37.483Z,25.91
2022-07-31T17:09:17.237Z,25.81
2022-07-31T17:11:47.575Z,25.47
2022-07-31T17:14:16.207Z,25.24
2022-07-31T17:16:47.570Z,25.19
2022-07-31T17:19:40.991Z,25.02
2022-07-31T17:22:05.857Z,24.88
2022-07-31T17:24:37.356Z,24.71
2022-07-31T17:27:07.068Z,24.62
2022-07-31T17:29:34.891Z,24.65
2022-07-31T17:32:02.441Z,24.58
2022-07-31T17:34:30.512Z,24.56
2022-07-31T17:36:57.797Z,24.66
2022-07-31T17:39:30.054Z,24.76
2022-07-31T17:41:58.734Z,24.58
2022-07-31T17:44:26.264Z,24.55
2022-07-31T17:46:54.924Z,24.45
2022-07-31T17:49:22.182Z,24.40
2022-07-31T17:51:59.960Z,24.34
2022-07-31T17:54:30.228Z,24.21
2022-07-31T17:56:57.838Z,24.17
2022-07-31T17:59:25.720Z,24.12
2022-07-31T18:01:59.623Z,24.04
2022-07-31T18:04:28.419Z,23.96
2022-07-31T18:06:56.449Z,23.83
2022-07-31T18:09:24.462Z,23.82
2022-07-31T18:11:52.728Z,24.05
2022-07-31T18:14:20.735Z,23.96
2022-07-31T18:16:52.547Z,23.97
2022-07-31T18:19:21.515Z,23.96
2022-07-31T18:21:49.687Z,23.85
2022-07-31T18:24:17.007Z,23.85
2022-07-31T18:26:44.412Z,23.78
2022-07-31T18:29:11.754Z,23.77
2022-07-31T18:31:39.091Z,23.70
2022-07-31T18:34:06.999Z,23.77
2022-07-31T18:36:35.183Z,23.85
2022-07-31T18:39:04.097Z,23.81
2022-07-31T18:41:31.912Z,23.91
2022-07-31T18:43:59.092Z,23.72
2022-07-31T18:46:26.981Z,23.67
2022-07-31T18:48:56.242Z,23.68
2022-07-31T18:51:25.546Z,23.52
2022-07-31T18:53:54.345Z,23.57
2022-07-31T18:56:23.514Z,23.55
2022-07-31T18:58:51.414Z,23.40
2022-07-31T19:01:18.805Z,23.53
2022-07-31T19:03:46.718Z,23.36
2022-07-31T19:06:15.054Z,23.30
2022-07-31T19:08:42.289Z,23.28
2022-07-31T19:11:09.657Z,23.21
2022-07-31T19:13:36.797Z,23.14
2022-07-31T19:16:04.186Z,23.09
2022-07-31T19:18:31.294Z,23.24
2022-07-31T19:21:21.245Z,23.30
2022-07-31T19:23:47.454Z,23.29
2022-07-31T19:26:15.075Z,23.26
2022-07-31T19:28:44.872Z,23.23
2022-07-31T19:31:13.348Z,23.25
2022-07-31T19:33:41.221Z,23.21
2022-07-31T19:36:08.431Z,23.24
2022-07-31T19:38:38.375Z,23.31
2022-07-31T19:41:05.810Z,23.30
2022-07-31T19:44:06.924Z,23.21
2022-07-31T19:46:35.569Z,23.25
2022-07-31T19:49:03.638Z,23.14
2022-07-31T19:51:32.159Z,23.13
2022-07-31T19:53:59.756Z,23.06
2022-07-31T19:56:27.319Z,23.04
2022-07-31T19:58:55.920Z,23.09
2022-07-31T20:01:23.593Z,23.12
2022-07-31T20:03:53.540Z,23.04
2022-07-31T20:06:20.903Z,23.07
2022-07-31T20:08:49.105Z,22.99
2022-07-31T20:11:17.284Z,22.93
2022-07-31T20:13:44.994Z,22.88
2022-07-31T20:16:13.700Z,22.84
2022-07-31T20:18:41.010Z,22.80
2022-07-31T20:21:10.102Z,22.76
2022-07-31T20:23:38.932Z,22.78
2022-07-31T20:26:11.061Z,22.71
2022-07-31T20:28:40.365Z,22.71
2022-07-31T20:31:18.431Z,22.75
2022-07-31T20:33:57.926Z,22.75
2022-07-31T20:36:26.691Z,22.73
2022-07-31T20:38:54.753Z,22.88
2022-07-31T20:41:22.141Z,22.85
2022-07-31T20:43:49.378Z,22.90
2022-07-31T20:46:18.214Z,22.70
2022-07-31T20:48:45.634Z,22.63
2022-07-31T20:51:20.249Z,22.52
2022-07-31T20:53:48.424Z,22.43
2022-07-31T20:56:17.070Z,22.46
2022-07-31T20:58:50.856Z,22.41
2022-07-31T21:01:22.985Z,22.63
2022-07-31T21:03:50.723Z,22.51
2022-07-31T21:06:22.949Z,22.56
2022-07-31T21:08:51.853Z,22.51
2022-07-31T21:11:20.529Z,22.38
2022-07-31T21:13:47.831Z,22.40
2022-07-31T21:16:15.896Z,22.41
2022-07-31T21:18:43.738Z,22.31
2022-07-31T21:21:11.326Z,22.39
2022-07-31T21:23:38.943Z,22.26
2022-07-31T21:26:10.344Z,22.22
2022-07-31T21:28:39.556Z,22.22
2022-07-31T21:31:07.347Z,22.18
2022-07-31T21:33:34.754Z,22.16
2022-07-31T21:36:02.120Z,22.13
2022-07-31T21:38:29.616Z,22.17
2022-07-31T21:40:57.030Z,22.08
2022-07-31T21:43:24.796Z,22.00
2022-07-31T21:45:57.422Z,22.09
2022-07-31T21:48:30.614Z,21.94
2022-07-31T21:50:59.668Z,22.06
2022-07-31T21:53:27.261Z,21.90
2022-07-31T21:55:54.773Z,21.79
2022-07-31T21:58:22.190Z,21.60
2022-07-31T22:00:49.485Z,21.61
2022-07-31T22:03:16.793Z,21.45
2022-07-31T22:06:02.947Z,21.47
2022-07-31T22:08:30.265Z,21.49
2022-07-31T22:10:57.504Z,21.48
2022-07-31T22:13:24.744Z,21.48
2022-07-31T22:16:00.209Z,21.37
2022-07-31T22:18:33.089Z,21.29
2022-07-31T22:21:03.489Z,21.21
2022-07-31T22:23:30.839Z,21.15
2022-07-31T22:25:59.166Z,21.19
2022-07-31T22:28:27.266Z,21.11
2022-07-31T22:30:55.872Z,21.07
2022-07-31T22:33:23.531Z,21.07
2022-07-31T22:35:59.448Z,21.04
2022-07-31T22:38:30.064Z,21.05
2022-07-31T22:41:01.663Z,21.02
2022-07-31T22:44:11.287Z,20.93
2022-07-31T22:46:16.324Z,20.82
2022-07-31T22:48:45.613Z,20.78
2022-07-31T22:51:14.881Z,20.74
2022-07-31T22:53:43.947Z,20.71
2022-07-31T22:56:14.839Z,20.79
2022-07-31T22:58:46.346Z,20.71
2022-07-31T23:01:13.609Z,20.86
2022-07-31T23:03:40.897Z,20.87
2022-07-31T23:06:30.698Z,21.01
2022-07-31T23:08:55.701Z,20.97
2022-07-31T23:11:24.524Z,21.02
2022-07-31T23:13:52.118Z,20.98
2022-07-31T23:16:20.524Z,21.02
2022-07-31T23:18:48.979Z,20.96
2022-07-31T23:21:17.017Z,21.04
2022-07-31T23:23:48.518Z,20.87
2022-07-31T23:26:30.687Z,20.92
2022-07-31T23:28:58.221Z,20.83
2022-07-31T23:31:25.481Z,20.74
2022-07-31T23:33:53.565Z,20.78
2022-07-31T23:36:21.578Z,20.64
2022-07-31T23:38:48.991Z,20.67
2022-07-31T23:41:36.431Z,20.66
2022-07-31T23:44:03.838Z,20.62
2022-07-31T23:46:32.274Z,20.54
2022-07-31T23:48:59.951Z,20.54
2022-07-31T23:51:27.287Z,20.61
2022-07-31T23:53:54.589Z,20.65
2022-07-31T23:56:21.845Z,20.61
2022-07-31T23:58:49.095Z,20.65
